createdAt,value
2017-09-10T00:02:12.423Z,9.53
2017-09-10T00:04:39.905Z,9.10
2017-09-10T00:07:08.131Z,9.50
2017-09-10T00:09:35.622Z,9.00
2017-09-10T00:12:03.096Z,9.07
2017-09-10T00:14:31.332Z,8.20
2017-09-10T00:16:58.788Z,9.10
2017-09-10T00:19:26.282Z,9.00
2017-09-10T00:21:53.750Z,9.97
2017-09-10T00:24:22.015Z,9.37
2017-09-10T00:26:49.476Z,10.47
2017-09-10T00:29:17.723Z,10.17
2017-09-10T00:31:45.186Z,11.10
2017-09-10T00:34:12.667Z,10.23
2017-09-10T00:36:40.890Z,9.63
2017-09-10T00:39:08.371Z,10.00
2017-09-10T00:41:35.848Z,11.30
2017-09-10T00:44:03.451Z,11.57
2017-09-10T00:46:31.051Z,11.23
2017-09-10T00:48:58.686Z,11.30
2017-09-10T00:51:26.232Z,12.40
2017-09-10T00:53:53.771Z,13.00
2017-09-10T00:56:21.311Z,13.10
2017-09-10T00:58:49.567Z,13.77
2017-09-10T01:01:17.039Z,13.10
2017-09-10T01:03:45.286Z,11.60
2017-09-10T01:06:12.783Z,12.10
2017-09-10T01:08:41.016Z,13.40
2017-09-10T01:11:08.495Z,13.00
2017-09-10T01:13:36.764Z,13.50
2017-09-10T01:16:04.219Z,11.97
2017-09-10T01:18:31.687Z,12.10
2017-09-10T01:20:59.931Z,12.63
2017-09-10T01:23:27.399Z,11.50
2017-09-10T01:25:54.902Z,10.70
2017-09-10T01:28:22.369Z,11.87
2017-09-10T01:30:49.831Z,11.90
2017-09-10T01:33:17.319Z,9.50
2017-09-10T01:35:44.779Z,9.27
2017-09-10T01:38:12.260Z,7.87
2017-09-10T01:40:40.493Z,9.70
2017-09-10T01:43:07.978Z,12.87
2017-09-10T01:45:35.462Z,13.93
2017-09-10T01:48:02.951Z,12.90
2017-09-10T01:50:30.411Z,11.60
2017-09-10T01:52:57.874Z,11.37
2017-09-10T01:55:25.363Z,11.53
2017-09-10T01:57:52.851Z,10.73
2017-09-10T02:00:20.311Z,11.63
2017-09-10T02:02:47.781Z,11.40
2017-09-10T02:05:15.259Z,12.00
2017-09-10T02:07:42.763Z,15.67
2017-09-10T02:10:11.015Z,11.50
2017-09-10T02:12:38.483Z,10.10
2017-09-10T02:15:06.732Z,14.23
2017-09-10T02:17:34.217Z,12.87
2017-09-10T02:20:02.464Z,11.90
2017-09-10T02:22:29.948Z,10.77
2017-09-10T02:24:58.186Z,11.37
2017-09-10T02:27:25.662Z,11.10
2017-09-10T02:29:53.912Z,10.10
2017-09-10T02:32:21.408Z,9.07
2017-09-10T02:34:49.635Z,10.20
2017-09-10T02:37:17.088Z,9.50
2017-09-10T02:39:44.581Z,9.70
2017-09-10T02:42:12.048Z,10.17
2017-09-10T02:44:40.285Z,10.57
2017-09-10T02:47:07.751Z,10.83
2017-09-10T02:49:35.271Z,10.50
2017-09-10T02:52:03.561Z,11.27
2017-09-10T02:54:31.028Z,11.70
2017-09-10T02:56:58.518Z,11.00
2017-09-10T02:59:25.982Z,12.07
2017-09-10T03:01:54.215Z,10.30
2017-09-10T03:04:21.697Z,11.27
2017-09-10T03:06:49.158Z,9.67
2017-09-10T03:09:16.634Z,10.13
2017-09-10T03:11:44.878Z,9.93
2017-09-10T03:14:12.368Z,10.70
2017-09-10T03:16:40.626Z,10.20
2017-09-10T03:19:08.098Z,9.90
2017-09-10T03:21:36.343Z,10.00
2017-09-10T03:24:03.798Z,11.07
2017-09-10T03:26:31.274Z,11.07
2017-09-10T03:28:58.754Z,11.83
2017-09-10T03:31:26.983Z,10.40
2017-09-10T03:33:54.464Z,11.60
2017-09-10T03:36:21.927Z,12.53
2017-09-10T03:38:50.178Z,11.70
2017-09-10T03:41:17.650Z,12.40
2017-09-10T03:43:45.155Z,10.53
2017-09-10T03:46:12.619Z,11.13
2017-09-10T03:48:40.087Z,10.77
2017-09-10T03:51:07.579Z,12.20
2017-09-10T03:53:35.059Z,9.83
2017-09-10T03:56:03.287Z,10.67
2017-09-10T03:58:30.771Z,10.73
2017-09-10T04:00:59.007Z,11.37
2017-09-10T04:03:26.469Z,9.67
2017-09-10T04:05:53.947Z,10.37
2017-09-10T04:08:21.415Z,10.50
2017-09-10T04:10:49.668Z,10.80
2017-09-10T04:13:17.143Z,10.30
2017-09-10T04:15:44.603Z,11.57
2017-09-10T04:18:12.843Z,10.23
2017-09-10T04:20:40.314Z,11.17
2017-09-10T04:23:07.815Z,10.10
2017-09-10T04:25:35.283Z,10.93
2017-09-10T04:28:02.750Z,10.47
2017-09-10T04:30:30.226Z,12.10
2017-09-10T04:32:57.699Z,11.27
2017-09-10T04:35:25.188Z,11.60
2017-09-10T04:37:53.415Z,11.40
2017-09-10T04:40:20.883Z,11.77
2017-09-10T04:42:48.380Z,11.37
2017-09-10T04:45:16.612Z,9.70
2017-09-10T04:47:44.086Z,10.20
2017-09-10T04:50:11.563Z,9.67
2017-09-10T04:52:39.782Z,9.77
2017-09-10T04:55:07.278Z,9.90
2017-09-10T04:57:34.762Z,10.43
2017-09-10T05:00:02.226Z,9.70
2017-09-10T05:02:29.718Z,9.90
2017-09-10T05:04:57.178Z,9.17
2017-09-10T05:07:24.671Z,9.27
2017-09-10T05:09:52.904Z,9.20
2017-09-10T05:12:20.374Z,8.77
2017-09-10T05:14:47.850Z,8.27
2017-09-10T05:17:16.074Z,8.37
2017-09-10T05:19:43.548Z,8.53
2017-09-10T05:22:11.007Z,8.37
2017-09-10T05:24:38.572Z,7.90
2017-09-10T05:27:06.146Z,8.03
2017-09-10T05:29:34.451Z,8.20
2017-09-10T05:32:01.938Z,7.77
2017-09-10T05:34:29.543Z,7.80
2017-09-10T05:36:58.003Z,7.53
2017-09-10T05:39:25.639Z,8.47
2017-09-10T05:41:53.292Z,7.60
2017-09-10T05:44:20.963Z,6.43
2017-09-10T05:46:48.514Z,6.00
2017-09-10T05:49:16.347Z,6.10
2017-09-10T05:51:44.844Z,6.40
2017-09-10T05:54:12.403Z,6.60
2017-09-10T05:56:39.895Z,6.47
2017-09-10T05:59:12.392Z,6.30
2017-09-10T06:01:40.011Z,6.90
2017-09-10T06:04:07.597Z,5.80
2017-09-10T06:06:35.147Z,6.40
2017-09-10T06:09:02.602Z,6.40
2017-09-10T06:11:30.216Z,5.80
2017-09-10T06:13:57.753Z,6.67
2017-09-10T06:16:25.363Z,6.87
2017-09-10T06:18:53.130Z,7.50
2017-09-10T06:21:20.789Z,6.63
2017-09-10T06:23:48.259Z,7.30
2017-09-10T06:26:15.802Z,6.80
2017-09-10T06:28:43.988Z,6.57
2017-09-10T06:31:11.484Z,5.90
2017-09-10T06:33:38.985Z,5.90
2017-09-10T06:36:06.460Z,5.70
2017-09-10T06:38:34.091Z,4.87
2017-09-10T06:41:01.567Z,4.97
2017-09-10T06:43:29.335Z,4.47
2017-09-10T06:45:57.890Z,3.57
2017-09-10T06:48:26.334Z,4.00
2017-09-10T06:50:53.825Z,3.70
2017-09-10T06:53:22.227Z,4.50
2017-09-10T06:55:49.780Z,3.50
2017-09-10T06:58:17.260Z,4.43
2017-09-10T07:00:44.844Z,3.70
2017-09-10T07:03:12.356Z,3.73
2017-09-10T07:05:39.832Z,3.90
2017-09-10T07:08:07.367Z,3.90
2017-09-10T07:10:35.033Z,3.67
2017-09-10T07:13:02.590Z,3.33
2017-09-10T07:15:30.096Z,3.30
2017-09-10T07:17:57.602Z,2.80
2017-09-10T07:20:25.118Z,3.80
2017-09-10T07:22:52.582Z,3.10
2017-09-10T07:25:20.098Z,2.97
2017-09-10T07:27:47.714Z,2.70
2017-09-10T07:30:15.220Z,2.77
2017-09-10T07:32:42.917Z,2.60
2017-09-10T07:35:10.634Z,2.27
2017-09-10T07:37:38.099Z,2.40
2017-09-10T07:40:05.579Z,2.03
2017-09-10T07:42:33.088Z,2.70
2017-09-10T07:45:00.678Z,2.00
2017-09-10T07:47:28.265Z,2.40
2017-09-10T07:49:55.757Z,2.73
2017-09-10T07:52:23.220Z,2.27
2017-09-10T07:54:50.712Z,2.07
2017-09-10T07:57:18.257Z,2.40
2017-09-10T07:59:45.833Z,2.30
2017-09-10T08:02:14.174Z,1.90
2017-09-10T08:04:41.782Z,1.90
2017-09-10T08:07:09.749Z,2.17
2017-09-10T08:09:38.114Z,2.10
2017-09-10T08:12:05.616Z,1.90
2017-09-10T08:14:33.203Z,1.90
2017-09-10T08:17:00.713Z,2.07
2017-09-10T08:19:29.064Z,2.00
2017-09-10T08:21:56.913Z,1.80
2017-09-10T08:24:24.595Z,2.20
2017-09-10T08:26:52.854Z,1.67
2017-09-10T08:29:20.417Z,2.00
2017-09-10T08:31:47.957Z,1.80
2017-09-10T08:34:16.026Z,1.90
2017-09-10T08:36:43.484Z,1.80
2017-09-10T08:39:10.967Z,2.00
2017-09-10T08:41:38.428Z,1.90
2017-09-10T08:44:05.940Z,1.83
2017-09-10T08:46:33.409Z,1.77
2017-09-10T08:49:00.875Z,1.90
2017-09-10T08:51:28.355Z,1.93
2017-09-10T08:53:55.823Z,1.80
2017-09-10T08:56:23.316Z,2.33
2017-09-10T08:58:50.788Z,2.13
2017-09-10T09:01:18.263Z,2.00
2017-09-10T09:03:45.759Z,1.97
2017-09-10T09:06:13.982Z,2.40
2017-09-10T09:08:41.458Z,2.00
2017-09-10T09:11:09.056Z,1.87
2017-09-10T09:13:37.303Z,1.80
2017-09-10T09:16:04.755Z,1.60
2017-09-10T09:18:32.251Z,2.00
2017-09-10T09:21:00.488Z,2.30
2017-09-10T09:23:27.943Z,1.87
2017-09-10T09:25:55.462Z,2.20
2017-09-10T09:28:23.006Z,1.70
2017-09-10T09:30:50.499Z,1.80
2017-09-10T09:33:17.972Z,2.00
2017-09-10T09:35:45.448Z,1.90
2017-09-10T09:38:12.943Z,1.60
2017-09-10T09:40:40.415Z,2.07
2017-09-10T09:43:07.896Z,1.70
2017-09-10T09:45:35.355Z,1.80
2017-09-10T09:48:02.837Z,1.67
2017-09-10T09:50:31.066Z,1.67
2017-09-10T09:52:58.610Z,1.77
2017-09-10T09:55:26.080Z,1.80
2017-09-10T09:57:53.561Z,1.90
2017-09-10T10:00:21.040Z,1.83
2017-09-10T10:02:48.497Z,1.70
2017-09-10T10:05:16.749Z,1.60
2017-09-10T10:07:44.240Z,1.80
2017-09-10T10:10:12.478Z,1.70
2017-09-10T10:12:39.986Z,1.40
2017-09-10T10:15:09.115Z,1.70
2017-09-10T10:17:36.713Z,1.30
2017-09-10T10:20:04.959Z,1.50
2017-09-10T10:22:32.436Z,1.43
2017-09-10T10:24:59.924Z,1.60
2017-09-10T10:27:27.419Z,2.70
2017-09-10T10:29:54.899Z,1.93
2017-09-10T10:32:22.381Z,2.17
2017-09-10T10:34:50.656Z,1.30
2017-09-10T10:37:18.883Z,1.40
2017-09-10T10:39:46.363Z,1.30
2017-09-10T10:42:13.853Z,1.60
2017-09-10T10:44:42.228Z,1.23
2017-09-10T10:47:09.799Z,1.90
2017-09-10T10:49:37.371Z,1.30
2017-09-10T10:52:04.827Z,2.00
2017-09-10T10:54:32.326Z,1.93
2017-09-10T10:56:59.834Z,1.80
2017-09-10T10:59:27.310Z,1.63
2017-09-10T11:01:54.784Z,1.43
2017-09-10T11:04:22.282Z,1.77
2017-09-10T11:06:49.786Z,1.70
2017-09-10T11:09:17.276Z,1.70
2017-09-10T11:11:44.756Z,1.50
2017-09-10T11:14:13.025Z,1.73
2017-09-10T11:16:40.509Z,1.60
2017-09-10T11:19:07.966Z,1.93
2017-09-10T11:21:35.446Z,1.47
2017-09-10T11:24:02.915Z,1.40
2017-09-10T11:26:30.400Z,1.70
2017-09-10T11:28:58.655Z,1.80
2017-09-10T11:31:26.131Z,1.53
2017-09-10T11:33:54.378Z,1.67
2017-09-10T11:36:21.886Z,1.67
2017-09-10T11:38:49.360Z,1.60
2017-09-10T11:41:16.820Z,1.90
2017-09-10T11:43:44.311Z,1.70
2017-09-10T11:46:11.778Z,1.50
2017-09-10T11:48:39.247Z,1.63
2017-09-10T11:51:07.569Z,1.70
2017-09-10T11:53:35.062Z,2.27
2017-09-10T11:56:02.533Z,1.80
2017-09-10T11:58:30.791Z,1.67
2017-09-10T12:00:58.251Z,1.90
2017-09-10T12:03:25.720Z,1.50
2017-09-10T12:05:53.195Z,2.00
2017-09-10T12:08:21.453Z,1.93
2017-09-10T12:10:48.914Z,1.40
2017-09-10T12:13:17.152Z,1.53
2017-09-10T12:15:44.706Z,1.83
2017-09-10T12:18:12.227Z,1.23
2017-09-10T12:20:40.445Z,1.80
2017-09-10T12:23:07.927Z,1.80
2017-09-10T12:25:35.386Z,1.53
2017-09-10T12:28:03.688Z,1.90
2017-09-10T12:30:31.904Z,1.80
2017-09-10T12:32:59.378Z,1.70
2017-09-10T12:35:26.882Z,1.57
2017-09-10T12:37:54.342Z,1.63
2017-09-10T12:40:21.835Z,1.90
2017-09-10T12:42:49.295Z,1.80
2017-09-10T12:45:16.775Z,1.60
2017-09-10T12:47:44.256Z,1.57
2017-09-10T12:50:11.745Z,1.73
2017-09-10T12:52:39.264Z,1.60
2017-09-10T12:55:07.508Z,1.70
2017-09-10T12:57:34.964Z,1.57
2017-09-10T13:00:02.452Z,1.50
2017-09-10T13:02:29.953Z,1.30
2017-09-10T13:04:57.428Z,1.70
2017-09-10T13:07:24.894Z,2.00
2017-09-10T13:09:52.386Z,1.67
2017-09-10T13:12:20.698Z,1.50
2017-09-10T13:14:48.179Z,1.70
2017-09-10T13:17:15.632Z,1.30
2017-09-10T13:19:43.091Z,1.70
2017-09-10T13:22:10.585Z,1.40
2017-09-10T13:24:38.067Z,1.90
2017-09-10T13:27:05.524Z,1.67
2017-09-10T13:29:32.995Z,1.50
2017-09-10T13:32:00.492Z,1.50
2017-09-10T13:34:28.732Z,1.37
2017-09-10T13:36:56.185Z,1.40
2017-09-10T13:39:23.664Z,1.63
2017-09-10T13:41:51.151Z,1.60
2017-09-10T13:44:19.869Z,1.53
2017-09-10T13:46:47.367Z,1.67
2017-09-10T13:49:14.908Z,2.23
2017-09-10T13:51:42.379Z,1.33
2017-09-10T13:54:09.862Z,1.40
2017-09-10T13:56:38.122Z,1.33
2017-09-10T13:59:05.592Z,1.30
2017-09-10T14:01:33.824Z,1.63
2017-09-10T14:04:01.312Z,1.37
2017-09-10T14:06:28.772Z,1.43
2017-09-10T14:08:57.011Z,1.53
2017-09-10T14:11:24.486Z,1.40
2017-09-10T14:13:51.960Z,1.40
2017-09-10T14:16:20.211Z,1.40
2017-09-10T14:18:47.675Z,1.40
2017-09-10T14:21:15.188Z,1.87
2017-09-10T14:23:42.670Z,1.50
2017-09-10T14:26:10.136Z,1.60
2017-09-10T14:28:37.607Z,1.70
2017-09-10T14:31:05.079Z,1.63
2017-09-10T14:33:33.334Z,1.63
2017-09-10T14:36:00.787Z,1.80
2017-09-10T14:38:28.275Z,1.90
2017-09-10T14:40:55.768Z,1.70
2017-09-10T14:43:23.237Z,1.60
2017-09-10T14:45:50.723Z,1.90
2017-09-10T14:48:18.180Z,1.80
2017-09-10T14:50:45.663Z,1.83
2017-09-10T14:53:13.127Z,1.53
2017-09-10T14:55:40.611Z,1.70
2017-09-10T14:58:08.080Z,1.73
2017-09-10T15:00:35.556Z,1.50
2017-09-10T15:03:03.036Z,1.60
2017-09-10T15:05:31.268Z,2.07
2017-09-10T15:07:58.777Z,1.67
2017-09-10T15:10:27.015Z,1.50
2017-09-10T15:12:54.481Z,1.80
2017-09-10T15:15:21.962Z,1.40
2017-09-10T15:17:50.198Z,1.70
2017-09-10T15:20:17.672Z,1.70
2017-09-10T15:22:45.148Z,1.60
2017-09-10T15:25:13.404Z,1.60
2017-09-10T15:27:40.888Z,1.80
2017-09-10T15:30:09.127Z,1.97
2017-09-10T15:32:36.595Z,1.53
2017-09-10T15:35:04.920Z,1.77
2017-09-10T15:37:32.389Z,1.53
2017-09-10T15:39:59.851Z,1.50
2017-09-10T15:42:27.316Z,1.50
2017-09-10T15:44:54.803Z,1.40
2017-09-10T15:47:22.266Z,1.30
2017-09-10T15:49:50.488Z,1.40
2017-09-10T15:52:17.982Z,1.43
2017-09-10T15:54:45.452Z,1.70
2017-09-10T15:57:13.695Z,1.60
2017-09-10T15:59:41.167Z,1.40
2017-09-10T16:02:08.640Z,1.40
2017-09-10T16:04:36.946Z,1.83
2017-09-10T16:07:04.463Z,1.80
2017-09-10T16:09:31.966Z,1.30
2017-09-10T16:11:59.476Z,1.70
2017-09-10T16:14:26.980Z,1.53
2017-09-10T16:16:54.472Z,1.97
2017-09-10T16:19:21.933Z,1.77
2017-09-10T16:21:49.403Z,1.50
2017-09-10T16:24:16.871Z,1.87
2017-09-10T16:26:45.123Z,1.67
2017-09-10T16:29:12.583Z,1.57
2017-09-10T16:31:40.079Z,1.87
2017-09-10T16:34:08.314Z,1.80
2017-09-10T16:36:36.572Z,6.53
2017-09-10T16:39:04.051Z,2.20
2017-09-10T16:41:31.567Z,2.20
2017-09-10T16:43:59.052Z,1.50
2017-09-10T16:46:26.528Z,1.50
2017-09-10T16:48:54.035Z,1.60
2017-09-10T16:51:21.515Z,1.67
2017-09-10T16:53:48.988Z,1.47
2017-09-10T16:56:16.468Z,1.43
2017-09-10T16:58:44.711Z,1.40
2017-09-10T17:01:12.176Z,1.47
2017-09-10T17:03:39.636Z,1.50
2017-09-10T17:06:07.883Z,1.50
2017-09-10T17:08:35.337Z,1.70
2017-09-10T17:11:02.800Z,1.67
2017-09-10T17:13:30.279Z,1.60
2017-09-10T17:15:57.741Z,1.60
2017-09-10T17:18:25.211Z,1.70
2017-09-10T17:20:53.935Z,1.50
2017-09-10T17:23:21.981Z,1.73
2017-09-10T17:25:50.229Z,1.60
2017-09-10T17:28:17.679Z,1.43
2017-09-10T17:30:45.930Z,1.80
2017-09-10T17:33:13.400Z,1.60
2017-09-10T17:35:40.889Z,1.80
2017-09-10T17:38:08.338Z,2.10
2017-09-10T17:40:36.567Z,1.77
2017-09-10T17:43:04.047Z,2.00
2017-09-10T17:45:31.509Z,1.70
2017-09-10T17:47:59.042Z,1.60
2017-09-10T17:50:27.381Z,1.90
2017-09-10T17:52:54.847Z,1.57
2017-09-10T17:55:22.328Z,2.27
2017-09-10T17:57:49.815Z,7.03
2017-09-10T18:00:17.275Z,2.37
2017-09-10T18:02:44.748Z,1.80
2017-09-10T18:05:13.030Z,2.13
2017-09-10T18:07:41.285Z,1.80
2017-09-10T18:10:09.183Z,1.50
2017-09-10T18:12:36.658Z,2.00
2017-09-10T18:15:04.173Z,1.80
2017-09-10T18:17:31.648Z,2.20
2017-09-10T18:19:59.874Z,1.60
2017-09-10T18:22:27.364Z,1.70
2017-09-10T18:24:55.621Z,1.57
2017-09-10T18:27:23.111Z,1.50
2017-09-10T18:29:50.571Z,1.50
2017-09-10T18:32:18.056Z,1.80
2017-09-10T18:34:45.646Z,1.80
2017-09-10T18:37:13.980Z,2.83
2017-09-10T18:39:41.511Z,2.30
2017-09-10T18:42:09.843Z,1.90
2017-09-10T18:44:37.359Z,2.00
2017-09-10T18:47:04.913Z,1.80
2017-09-10T18:49:32.480Z,1.90
2017-09-10T18:52:00.059Z,2.03
2017-09-10T18:54:27.693Z,1.50
2017-09-10T18:56:56.201Z,2.20
2017-09-10T18:59:23.959Z,2.00
2017-09-10T19:01:51.816Z,2.20
2017-09-10T19:04:19.488Z,1.80
2017-09-10T19:06:46.999Z,2.07
2017-09-10T19:09:14.551Z,1.93
2017-09-10T19:11:42.900Z,2.00
2017-09-10T19:14:10.423Z,1.90
2017-09-10T19:16:38.087Z,2.30
2017-09-10T19:19:05.787Z,2.20
2017-09-10T19:21:33.432Z,2.40
2017-09-10T19:24:01.807Z,2.67
2017-09-10T19:26:30.123Z,2.10
2017-09-10T19:28:58.356Z,2.47
2017-09-10T19:31:26.006Z,1.97
2017-09-10T19:33:53.739Z,2.00
2017-09-10T19:36:22.115Z,2.57
2017-09-10T19:38:49.729Z,2.20
2017-09-10T19:41:17.351Z,2.20
2017-09-10T19:43:44.976Z,1.70
2017-09-10T19:46:12.596Z,1.80
2017-09-10T19:48:40.290Z,2.17
2017-09-10T19:51:08.195Z,1.40
2017-09-10T19:53:36.432Z,2.10
2017-09-10T19:56:04.059Z,2.17
2017-09-10T19:58:31.901Z,2.40
2017-09-10T20:00:59.424Z,1.90
2017-09-10T20:03:27.015Z,1.90
2017-09-10T20:05:54.570Z,2.30
2017-09-10T20:08:22.049Z,2.00
2017-09-10T20:10:49.619Z,2.30
2017-09-10T20:13:17.260Z,1.90
2017-09-10T20:15:44.784Z,2.27
2017-09-10T20:18:12.308Z,2.10
2017-09-10T20:20:40.118Z,1.83
2017-09-10T20:23:07.616Z,1.90
2017-09-10T20:25:35.079Z,2.00
2017-09-10T20:28:02.721Z,1.83
2017-09-10T20:30:30.271Z,2.10
2017-09-10T20:32:57.756Z,1.97
2017-09-10T20:35:25.282Z,2.30
2017-09-10T20:37:52.749Z,2.00
2017-09-10T20:40:20.248Z,1.83
2017-09-10T20:42:47.707Z,2.00
2017-09-10T20:45:15.208Z,2.20
2017-09-10T20:47:42.679Z,2.13
2017-09-10T20:50:10.223Z,2.00
2017-09-10T20:52:37.689Z,2.13
2017-09-10T20:55:05.163Z,2.10
2017-09-10T20:57:32.632Z,2.00
2017-09-10T21:00:00.104Z,2.00
2017-09-10T21:02:27.595Z,1.87
2017-09-10T21:04:55.842Z,2.20
2017-09-10T21:07:23.322Z,2.20
2017-09-10T21:09:51.560Z,1.80
2017-09-10T21:12:19.028Z,2.23
2017-09-10T21:14:46.506Z,2.00
2017-09-10T21:17:14.743Z,1.80
2017-09-10T21:19:42.200Z,2.10
2017-09-10T21:22:09.665Z,1.93
2017-09-10T21:24:37.147Z,1.70
2017-09-10T21:27:05.379Z,2.40
2017-09-10T21:29:32.859Z,2.20
2017-09-10T21:32:00.319Z,2.00
2017-09-10T21:34:27.807Z,2.07
2017-09-10T21:36:55.266Z,1.90
2017-09-10T21:39:22.722Z,2.20
2017-09-10T21:41:50.203Z,2.37
2017-09-10T21:44:17.753Z,2.20
2017-09-10T21:46:45.218Z,2.20
2017-09-10T21:49:12.695Z,1.80
2017-09-10T21:51:40.192Z,1.80
2017-09-10T21:54:08.442Z,2.00
2017-09-10T21:56:35.904Z,1.67
2017-09-10T21:59:03.356Z,1.93
2017-09-10T22:01:30.840Z,1.93
2017-09-10T22:03:59.075Z,2.40
2017-09-10T22:06:26.557Z,1.90
2017-09-10T22:08:54.011Z,1.80
2017-09-10T22:11:22.271Z,2.20
2017-09-10T22:13:49.719Z,1.90
2017-09-10T22:16:17.191Z,2.07
2017-09-10T22:18:44.658Z,2.00
2017-09-10T22:21:12.886Z,2.17
2017-09-10T22:23:40.367Z,2.27
2017-09-10T22:26:07.827Z,1.83
2017-09-10T22:28:35.300Z,1.90
2017-09-10T22:31:03.551Z,2.00
2017-09-10T22:33:31.016Z,1.60
2017-09-10T22:35:58.487Z,1.60
2017-09-10T22:38:25.940Z,1.63
2017-09-10T22:40:53.414Z,2.07
2017-09-10T22:43:21.663Z,1.97
2017-09-10T22:45:49.134Z,1.87
2017-09-10T22:48:17.358Z,1.90
2017-09-10T22:50:44.852Z,1.87
2017-09-10T22:53:12.312Z,1.87
2017-09-10T22:55:39.765Z,1.87
2017-09-10T22:58:08.011Z,1.80
2017-09-10T23:00:35.471Z,2.27
2017-09-10T23:03:02.964Z,1.43
2017-09-10T23:05:31.188Z,1.80
2017-09-10T23:07:58.662Z,1.77
2017-09-10T23:10:26.156Z,2.10
2017-09-10T23:12:53.607Z,2.37
2017-09-10T23:15:21.850Z,2.10
2017-09-10T23:17:49.319Z,2.57
2017-09-10T23:20:16.779Z,2.20
2017-09-10T23:22:44.243Z,1.80
2017-09-10T23:25:11.734Z,1.67
2017-09-10T23:27:39.208Z,2.07
2017-09-10T23:30:06.678Z,1.87
2017-09-10T23:32:34.163Z,2.00
2017-09-10T23:35:01.625Z,1.70
2017-09-10T23:37:29.108Z,2.00
2017-09-10T23:39:57.335Z,1.80
2017-09-10T23:42:24.801Z,1.77
2017-09-10T23:44:52.267Z,1.60
2017-09-10T23:47:19.727Z,1.80
2017-09-10T23:49:47.204Z,1.77
2017-09-10T23:52:21.125Z,2.40
2017-09-10T23:54:49.365Z,1.70
2017-09-10T23:57:16.819Z,1.80
2017-09-10T23:59:44.275Z,1.70
